createdAt,value
2022-11-17T00:00:41.991Z,79.07
2022-11-17T00:03:19.685Z,79.83
2022-11-17T00:05:47.021Z,79.22
2022-11-17T00:08:14.664Z,79.52
2022-11-17T00:10:41.979Z,78.42
2022-11-17T00:13:29.491Z,79.58
2022-11-17T00:15:57.081Z,79.07
2022-11-17T00:18:42.833Z,83.34
2022-11-17T00:21:23.614Z,82.70
2022-11-17T00:23:51.214Z,82.27
2022-11-17T00:26:28.812Z,81.68
2022-11-17T00:28:58.020Z,81.47
2022-11-17T00:31:45.270Z,85.62
2022-11-17T00:34:15.492Z,86.52
2022-11-17T00:36:51.025Z,85.62
2022-11-17T00:39:20.220Z,84.10
2022-11-17T00:41:47.844Z,84.71
2022-11-17T00:44:15.542Z,83.15
2022-11-17T00:46:43.275Z,79.97
2022-11-17T00:49:11.380Z,80.20
2022-11-17T00:51:39.072Z,80.88
2022-11-17T00:54:07.838Z,81.15
2022-11-17T00:56:35.389Z,81.04
2022-11-17T00:59:02.778Z,84.60
2022-11-17T01:01:30.336Z,83.69
2022-11-17T01:04:03.313Z,82.21
2022-11-17T01:06:42.814Z,80.40
2022-11-17T01:09:14.041Z,87.07
2022-11-17T01:11:42.068Z,85.68
2022-11-17T01:14:18.112Z,82.37
2022-11-17T01:16:46.135Z,82.59
2022-11-17T01:19:14.702Z,80.88
2022-11-17T01:21:42.018Z,79.41
2022-11-17T01:24:11.251Z,80.36
2022-11-17T01:26:39.668Z,79.38
2022-11-17T01:29:07.796Z,81.12
2022-11-17T01:31:37.545Z,80.79
2022-11-17T01:34:05.945Z,80.11
2022-11-17T01:36:57.575Z,78.58
2022-11-17T01:39:26.848Z,78.85
2022-11-17T01:41:54.573Z,77.24
2022-11-17T01:44:49.096Z,77.81
2022-11-17T01:47:25.517Z,78.80
2022-11-17T01:49:56.745Z,79.62
2022-11-17T01:52:25.070Z,81.08
2022-11-17T01:54:54.232Z,80.96
2022-11-17T01:57:27.074Z,78.89
2022-11-17T01:59:58.736Z,81.98
2022-11-17T02:02:26.118Z,80.84
2022-11-17T02:05:04.485Z,80.36
2022-11-17T02:07:35.024Z,81.23
2022-11-17T02:10:03.178Z,80.13
2022-11-17T02:12:32.193Z,79.83
2022-11-17T02:15:00.421Z,81.84
2022-11-17T02:17:35.380Z,81.30
2022-11-17T02:20:07.798Z,82.55
2022-11-17T02:22:48.296Z,83.27
2022-11-17T02:25:30.902Z,83.35
2022-11-17T02:28:28.208Z,82.73
2022-11-17T02:31:37.196Z,85.53
2022-11-17T02:34:31.744Z,83.57
2022-11-17T02:37:04.011Z,84.45
2022-11-17T02:39:42.147Z,83.68
2022-11-17T02:42:52.992Z,86.35
2022-11-17T02:45:40.024Z,83.29
2022-11-17T02:48:13.325Z,85.16
2022-11-17T02:50:42.123Z,82.88
2022-11-17T02:53:09.962Z,82.83
2022-11-17T02:55:37.951Z,82.57
2022-11-17T02:58:11.147Z,83.97
2022-11-17T03:01:05.066Z,82.29
2022-11-17T03:03:40.074Z,80.82
2022-11-17T03:06:20.232Z,81.01
2022-11-17T03:08:53.581Z,80.94
2022-11-17T03:11:23.398Z,82.25
2022-11-17T03:14:01.636Z,80.84
2022-11-17T03:16:38.043Z,82.89
2022-11-17T03:19:47.948Z,84.23
2022-11-17T03:22:22.964Z,80.74
2022-11-17T03:24:59.818Z,81.02
2022-11-17T03:27:31.037Z,81.23
2022-11-17T03:30:01.009Z,80.93
2022-11-17T03:32:33.055Z,80.83
2022-11-17T03:35:05.625Z,80.24
2022-11-17T03:37:34.615Z,82.36
2022-11-17T03:40:05.103Z,81.64
2022-11-17T03:42:35.518Z,83.04
2022-11-17T03:45:11.451Z,84.68
2022-11-17T03:47:54.318Z,84.08
2022-11-17T03:50:32.289Z,87.84
2022-11-17T03:53:02.007Z,85.16
2022-11-17T03:55:36.748Z,84.68
2022-11-17T03:58:07.788Z,85.99
2022-11-17T04:00:36.415Z,87.47
2022-11-17T04:03:04.010Z,83.80
2022-11-17T04:05:31.317Z,85.84
2022-11-17T04:07:58.645Z,84.98
2022-11-17T04:10:26.735Z,85.04
2022-11-17T04:13:20.727Z,84.45
2022-11-17T04:15:57.160Z,84.49
2022-11-17T04:18:24.740Z,83.83
2022-11-17T04:20:54.385Z,84.89
2022-11-17T04:23:22.488Z,82.49
2022-11-17T04:26:10.889Z,82.46
2022-11-17T04:28:42.604Z,83.12
2022-11-17T04:31:14.486Z,81.92
2022-11-17T04:33:44.222Z,83.62
2022-11-17T04:36:13.916Z,82.54
2022-11-17T04:38:43.204Z,81.79
2022-11-17T04:41:30.742Z,81.98
2022-11-17T04:43:58.661Z,81.03
2022-11-17T04:46:27.149Z,79.09
2022-11-17T04:48:55.150Z,77.39
2022-11-17T04:51:23.368Z,79.55
2022-11-17T04:53:51.081Z,76.65
2022-11-17T04:56:19.373Z,78.47
2022-11-17T04:58:47.634Z,77.71
2022-11-17T05:01:16.549Z,76.94
2022-11-17T05:03:51.616Z,77.03
2022-11-17T05:06:26.202Z,76.11
2022-11-17T05:08:55.744Z,78.40
2022-11-17T05:11:44.231Z,80.15
2022-11-17T05:14:12.455Z,78.46
2022-11-17T05:16:58.625Z,78.94
2022-11-17T05:19:27.910Z,80.63
2022-11-17T05:21:55.706Z,79.77
2022-11-17T05:24:23.232Z,79.78
2022-11-17T05:26:50.854Z,80.75
2022-11-17T05:29:20.773Z,79.84
2022-11-17T05:31:48.452Z,78.92
2022-11-17T05:34:17.435Z,80.59
2022-11-17T05:36:45.579Z,80.09
2022-11-17T05:39:14.042Z,79.67
2022-11-17T05:41:41.672Z,78.97
2022-11-17T05:44:09.308Z,79.27
2022-11-17T05:46:36.805Z,78.74
2022-11-17T05:49:04.211Z,79.45
2022-11-17T05:51:32.416Z,81.16
2022-11-17T05:53:59.727Z,80.23
2022-11-17T05:56:33.176Z,81.28
2022-11-17T05:59:10.460Z,80.60
2022-11-17T06:01:42.528Z,80.37
2022-11-17T06:04:10.734Z,80.60
2022-11-17T06:06:38.089Z,80.81
2022-11-17T06:09:05.619Z,81.74
2022-11-17T06:11:33.207Z,82.11
2022-11-17T06:14:00.614Z,81.00
2022-11-17T06:16:29.861Z,81.41
2022-11-17T06:19:06.500Z,81.24
2022-11-17T06:22:04.328Z,81.11
2022-11-17T06:24:23.346Z,81.69
2022-11-17T06:26:51.096Z,80.82
2022-11-17T06:29:18.508Z,83.63
2022-11-17T06:31:46.345Z,80.72
2022-11-17T06:34:13.810Z,81.56
2022-11-17T06:36:41.119Z,82.60
2022-11-17T06:39:08.694Z,78.95
2022-11-17T06:41:37.089Z,78.37
2022-11-17T06:44:04.478Z,78.97
2022-11-17T06:46:38.010Z,78.71
2022-11-17T06:49:07.065Z,80.06
2022-11-17T06:51:35.627Z,77.27
2022-11-17T06:54:03.964Z,78.63
2022-11-17T06:56:31.453Z,80.19
2022-11-17T06:58:59.738Z,80.41
2022-11-17T07:01:27.105Z,80.56
2022-11-17T07:03:54.482Z,79.76
2022-11-17T07:06:22.400Z,79.35
2022-11-17T07:08:50.831Z,81.53
2022-11-17T07:11:19.200Z,80.36
2022-11-17T07:13:46.813Z,80.66
2022-11-17T07:16:21.706Z,80.04
2022-11-17T07:18:49.516Z,80.25
2022-11-17T07:21:17.931Z,78.17
2022-11-17T07:23:45.850Z,81.88
2022-11-17T07:26:14.300Z,80.04
2022-11-17T07:28:41.794Z,79.57
2022-11-17T07:31:09.514Z,77.53
2022-11-17T07:33:37.165Z,77.64
2022-11-17T07:36:07.651Z,77.32
2022-11-17T07:38:36.211Z,79.71
2022-11-17T07:41:05.133Z,79.19
2022-11-17T07:43:33.218Z,79.49
2022-11-17T07:46:18.764Z,78.88
2022-11-17T07:48:46.357Z,79.79
2022-11-17T07:51:14.176Z,79.55
2022-11-17T07:53:41.577Z,79.75
2022-11-17T07:56:11.046Z,78.55
2022-11-17T07:58:38.854Z,78.69
2022-11-17T08:01:07.914Z,80.33
2022-11-17T08:03:35.645Z,78.54
2022-11-17T08:06:07.285Z,79.21
2022-11-17T08:08:35.396Z,80.09
2022-11-17T08:11:10.851Z,78.27
2022-11-17T08:13:39.730Z,77.46
2022-11-17T08:16:08.991Z,75.67
2022-11-17T08:18:39.567Z,75.91
2022-11-17T08:21:10.204Z,78.84
2022-11-17T08:23:38.593Z,77.86
2022-11-17T08:26:07.461Z,76.38
2022-11-17T08:28:36.027Z,75.56
2022-11-17T08:31:05.370Z,77.41
2022-11-17T08:33:33.196Z,76.28
2022-11-17T08:36:01.899Z,75.77
2022-11-17T08:38:29.943Z,74.57
2022-11-17T08:41:05.129Z,75.09
2022-11-17T08:43:32.931Z,71.98
2022-11-17T08:46:00.255Z,73.20
2022-11-17T08:48:28.196Z,75.79
2022-11-17T08:50:55.998Z,74.24
2022-11-17T08:53:23.686Z,73.46
2022-11-17T08:55:51.968Z,72.63
2022-11-17T08:58:19.673Z,70.86
2022-11-17T09:00:47.605Z,72.73
2022-11-17T09:03:15.414Z,72.27
2022-11-17T09:05:45.097Z,72.89
2022-11-17T09:11:09.403Z,72.73
2022-11-17T09:13:36.997Z,73.15
2022-11-17T09:16:07.076Z,73.57
2022-11-17T09:18:35.259Z,72.87
2022-11-17T09:21:05.060Z,73.06
2022-11-17T09:23:32.997Z,75.47
2022-11-17T09:26:06.125Z,76.21
2022-11-17T09:28:34.179Z,73.70
2022-11-17T09:31:12.811Z,77.25
2022-11-17T09:33:40.911Z,77.37
2022-11-17T09:36:09.199Z,77.80
2022-11-17T09:38:37.489Z,77.10
2022-11-17T09:41:28.604Z,73.85
2022-11-17T09:44:16.132Z,75.00
2022-11-17T09:46:52.685Z,76.98
2022-11-17T09:49:43.961Z,78.23
2022-11-17T09:52:19.096Z,79.55
2022-11-17T09:54:48.623Z,77.23
2022-11-17T09:57:44.224Z,74.83
2022-11-17T10:00:14.378Z,75.03
2022-11-17T10:02:42.827Z,76.95
2022-11-17T10:05:21.216Z,74.52
2022-11-17T10:07:50.807Z,73.04
2022-11-17T10:10:34.313Z,74.62
2022-11-17T10:13:05.027Z,75.55
2022-11-17T10:15:48.775Z,76.48
2022-11-17T10:18:16.863Z,74.78
2022-11-17T10:20:45.424Z,71.85
2022-11-17T10:23:15.636Z,72.36
2022-11-17T10:25:45.583Z,68.17
2022-11-17T10:28:31.142Z,68.02
2022-11-17T10:31:02.527Z,70.44
2022-11-17T10:33:38.431Z,71.13
2022-11-17T10:36:20.437Z,70.91
2022-11-17T10:38:50.837Z,69.98
2022-11-17T10:41:24.304Z,70.04
2022-11-17T10:44:03.769Z,71.41
2022-11-17T10:46:43.209Z,73.38
2022-11-17T10:49:24.998Z,75.10
2022-11-17T10:52:16.450Z,69.91
2022-11-17T10:54:44.082Z,69.44
2022-11-17T10:57:30.018Z,70.22
2022-11-17T10:59:57.861Z,69.53
2022-11-17T11:02:39.339Z,69.73
2022-11-17T11:05:08.355Z,70.37
2022-11-17T11:07:36.731Z,72.15
2022-11-17T11:10:25.198Z,68.87
2022-11-17T11:12:59.277Z,69.95
2022-11-17T11:15:31.546Z,68.84
2022-11-17T11:17:59.166Z,69.86
2022-11-17T11:20:47.519Z,69.37
2022-11-17T11:23:33.864Z,67.90
2022-11-17T11:26:28.953Z,68.21
2022-11-17T11:29:30.956Z,67.61
2022-11-17T11:32:04.094Z,66.55
2022-11-17T11:34:39.753Z,66.23
2022-11-17T11:37:09.748Z,66.17
2022-11-17T11:39:56.087Z,66.04
2022-11-17T11:42:37.231Z,65.75
2022-11-17T11:45:13.641Z,63.48
2022-11-17T11:47:59.264Z,63.95
2022-11-17T11:50:28.500Z,63.75
2022-11-17T11:53:00.696Z,64.02
2022-11-17T11:55:31.556Z,64.07
2022-11-17T11:58:06.333Z,65.88
2022-11-17T12:00:34.257Z,65.56
2022-11-17T12:03:20.774Z,64.05
2022-11-17T12:06:33.930Z,67.25
2022-11-17T12:09:09.308Z,65.35
2022-11-17T12:11:57.500Z,65.17
2022-11-17T12:14:35.340Z,65.49
2022-11-17T12:17:06.631Z,63.74
2022-11-17T12:19:54.065Z,62.98
2022-11-17T12:22:49.283Z,60.02
2022-11-17T12:25:18.107Z,61.80
2022-11-17T12:27:50.140Z,59.86
2022-11-17T12:30:32.719Z,63.27
2022-11-17T12:33:04.880Z,63.06
2022-11-17T12:35:34.619Z,63.15
2022-11-17T12:38:14.291Z,62.80
2022-11-17T12:40:44.854Z,62.21
2022-11-17T12:43:20.867Z,63.01
2022-11-17T12:46:00.384Z,62.82
2022-11-17T12:48:38.486Z,63.85
2022-11-17T12:51:17.134Z,63.29
2022-11-17T12:54:01.169Z,62.23
2022-11-17T12:56:50.723Z,63.12
2022-11-17T12:59:20.634Z,63.95
2022-11-17T13:02:03.874Z,66.52
2022-11-17T13:04:49.829Z,64.83
2022-11-17T13:07:20.808Z,63.44
2022-11-17T13:09:53.981Z,64.33
2022-11-17T13:12:23.158Z,65.76
2022-11-17T13:14:58.166Z,66.18
2022-11-17T13:17:31.285Z,65.02
2022-11-17T13:20:04.111Z,65.88
2022-11-17T13:22:31.739Z,66.28
2022-11-17T13:25:12.903Z,62.72
2022-11-17T13:27:47.992Z,64.33
2022-11-17T13:30:25.602Z,63.53
2022-11-17T13:32:54.896Z,65.26
2022-11-17T13:35:29.436Z,64.37
2022-11-17T13:38:23.834Z,66.10
2022-11-17T13:40:52.571Z,67.97
2022-11-17T13:43:21.527Z,67.04
2022-11-17T13:45:49.769Z,64.23
2022-11-17T13:48:36.697Z,63.31
2022-11-17T13:51:39.412Z,64.53
2022-11-17T13:54:14.153Z,64.72
2022-11-17T13:57:07.980Z,65.55
2022-11-17T13:59:37.495Z,64.87
2022-11-17T14:02:17.666Z,64.71
2022-11-17T14:05:18.309Z,63.96
2022-11-17T14:07:46.817Z,63.93
2022-11-17T14:10:31.420Z,64.23
2022-11-17T14:13:04.643Z,64.97
2022-11-17T14:15:34.597Z,64.11
2022-11-17T14:18:17.428Z,63.28
2022-11-17T14:20:45.027Z,63.00
2022-11-17T14:23:12.237Z,62.85
2022-11-17T14:25:41.673Z,64.65
2022-11-17T14:28:25.459Z,62.89
2022-11-17T14:30:57.551Z,63.24
2022-11-17T14:33:25.882Z,63.83
2022-11-17T14:35:55.548Z,63.53
2022-11-17T14:38:23.128Z,63.91
2022-11-17T14:40:52.407Z,62.74
2022-11-17T14:43:21.139Z,64.04
2022-11-17T14:45:49.517Z,64.96
2022-11-17T14:48:19.409Z,65.08
2022-11-17T14:50:48.298Z,64.34
2022-11-17T14:53:15.629Z,65.09
2022-11-17T14:55:43.207Z,63.13
2022-11-17T14:58:10.538Z,63.73
2022-11-17T15:00:37.873Z,62.87
2022-11-17T15:03:05.514Z,63.19
2022-11-17T15:05:32.961Z,64.61
2022-11-17T15:08:00.341Z,64.20
2022-11-17T15:10:27.921Z,63.87
2022-11-17T15:12:55.754Z,65.38
2022-11-17T15:15:23.074Z,66.19
2022-11-17T15:17:50.641Z,65.09
2022-11-17T15:20:17.961Z,65.36
2022-11-17T15:22:45.390Z,66.35
2022-11-17T15:25:12.972Z,66.63
2022-11-17T15:27:40.297Z,67.72
2022-11-17T15:30:08.293Z,67.90
2022-11-17T15:32:36.781Z,67.78
2022-11-17T15:35:04.166Z,68.71
2022-11-17T15:37:31.487Z,67.78
2022-11-17T15:39:59.203Z,68.54
2022-11-17T15:42:26.517Z,69.26
2022-11-17T15:44:53.828Z,68.46
2022-11-17T15:47:21.428Z,69.74
2022-11-17T15:49:48.742Z,69.39
2022-11-17T15:52:17.512Z,72.04
2022-11-17T15:54:47.066Z,73.17
2022-11-17T15:57:14.373Z,74.09
2022-11-17T15:59:41.682Z,70.46
2022-11-17T16:02:09.726Z,71.21
2022-11-17T16:04:37.373Z,70.64
2022-11-17T16:07:04.743Z,70.37
2022-11-17T16:09:32.114Z,71.47
2022-11-17T16:11:59.763Z,72.54
2022-11-17T16:14:27.101Z,72.15
2022-11-17T16:16:54.420Z,70.90
2022-11-17T16:19:21.994Z,73.59
2022-11-17T16:21:49.993Z,73.67
2022-11-17T16:24:17.351Z,76.06
2022-11-17T16:26:45.833Z,76.11
2022-11-17T16:29:13.445Z,73.02
2022-11-17T16:31:41.140Z,74.83
2022-11-17T16:34:14.027Z,75.09
2022-11-17T16:36:42.920Z,74.12
2022-11-17T16:39:13.415Z,73.71
2022-11-17T16:41:42.348Z,72.62
2022-11-17T16:44:14.542Z,74.15
2022-11-17T16:46:44.346Z,74.00
2022-11-17T16:49:14.104Z,75.06
2022-11-17T16:51:47.220Z,73.79
2022-11-17T16:54:14.564Z,73.45
2022-11-17T16:56:42.342Z,73.84
2022-11-17T16:59:11.068Z,73.05
2022-11-17T17:01:38.672Z,73.18
2022-11-17T17:04:08.947Z,73.21
2022-11-17T17:06:39.469Z,74.14
2022-11-17T17:09:09.031Z,75.17
2022-11-17T17:11:36.837Z,74.52
2022-11-17T17:14:06.698Z,74.63
2022-11-17T17:16:36.432Z,74.79
2022-11-17T17:19:06.150Z,76.08
2022-11-17T17:21:35.132Z,75.66
2022-11-17T17:24:02.624Z,74.80
2022-11-17T17:26:31.441Z,74.71
2022-11-17T17:29:00.398Z,74.62
2022-11-17T17:31:33.969Z,73.12
2022-11-17T17:34:01.872Z,73.48
2022-11-17T17:36:30.694Z,74.23
2022-11-17T17:39:02.083Z,73.32
2022-11-17T17:41:35.076Z,74.64
2022-11-17T17:44:05.908Z,73.21
2022-11-17T17:46:36.795Z,74.27
2022-11-17T17:49:05.181Z,74.85
2022-11-17T17:51:44.645Z,73.36
2022-11-17T17:54:17.876Z,73.66
2022-11-17T17:56:45.851Z,73.52
2022-11-17T17:59:14.362Z,75.38
2022-11-17T18:01:43.897Z,76.82
2022-11-17T18:04:15.882Z,77.04
2022-11-17T18:06:49.332Z,77.16
2022-11-17T18:09:19.693Z,76.99
2022-11-17T18:11:50.838Z,79.62
2022-11-17T18:14:24.864Z,78.00
2022-11-17T18:16:53.589Z,78.06
2022-11-17T18:19:23.985Z,77.43
2022-11-17T18:21:53.773Z,78.85
2022-11-17T18:24:21.901Z,77.36
2022-11-17T18:26:50.304Z,78.77
2022-11-17T18:29:21.029Z,77.71
2022-11-17T18:31:49.841Z,77.55
2022-11-17T18:34:21.580Z,78.34
2022-11-17T18:36:51.733Z,79.39
2022-11-17T18:39:20.734Z,79.49
2022-11-17T18:41:48.867Z,79.41
2022-11-17T18:44:19.908Z,79.23
2022-11-17T18:46:48.060Z,78.80
2022-11-17T18:49:18.490Z,79.15
2022-11-17T18:51:47.120Z,79.09
2022-11-17T18:54:15.973Z,81.32
2022-11-17T18:56:44.911Z,79.56
2022-11-17T18:59:13.318Z,80.83
2022-11-17T19:01:43.337Z,79.43
2022-11-17T19:04:15.174Z,79.24
2022-11-17T19:06:43.481Z,79.26
2022-11-17T19:09:11.467Z,78.44
2022-11-17T19:11:39.234Z,79.28
2022-11-17T19:14:07.436Z,78.56
2022-11-17T19:16:44.044Z,80.36
2022-11-17T19:19:14.061Z,78.91
2022-11-17T19:21:42.425Z,80.18
2022-11-17T19:24:10.281Z,77.88
2022-11-17T19:26:39.332Z,77.80
2022-11-17T19:29:16.089Z,79.75
2022-11-17T19:31:46.383Z,80.52
2022-11-17T19:34:16.288Z,80.36
2022-11-17T19:36:45.297Z,79.62
2022-11-17T19:39:14.795Z,80.31
2022-11-17T19:41:44.049Z,81.65
2022-11-17T19:44:12.063Z,81.55
2022-11-17T19:46:40.252Z,83.73
2022-11-17T19:49:09.159Z,83.98
2022-11-17T19:51:38.492Z,82.66
2022-11-17T19:54:09.227Z,82.17
2022-11-17T19:56:38.713Z,80.10
2022-11-17T19:59:09.757Z,79.25
2022-11-17T20:01:40.634Z,80.61
2022-11-17T20:04:08.951Z,79.39
2022-11-17T20:06:37.814Z,81.20
2022-11-17T20:09:08.480Z,81.32
2022-11-17T20:11:38.408Z,82.48
2022-11-17T20:14:08.956Z,81.35
2022-11-17T20:16:39.094Z,82.21
2022-11-17T20:19:07.012Z,83.75
2022-11-17T20:21:35.985Z,85.94
2022-11-17T20:24:04.155Z,81.78
2022-11-17T20:26:35.523Z,80.40
2022-11-17T20:29:03.656Z,80.49
2022-11-17T20:31:33.604Z,80.04
2022-11-17T20:34:02.546Z,81.27
2022-11-17T20:36:30.886Z,80.77
2022-11-17T20:39:01.635Z,80.10
2022-11-17T20:41:29.353Z,83.02
2022-11-17T20:43:59.889Z,81.77
2022-11-17T20:46:28.114Z,78.90
2022-11-17T20:48:56.017Z,77.95
2022-11-17T20:51:25.204Z,77.15
2022-11-17T20:53:53.921Z,77.40
2022-11-17T20:56:21.809Z,77.97
2022-11-17T20:58:50.649Z,77.95
2022-11-17T21:01:22.907Z,77.71
2022-11-17T21:03:50.593Z,75.12
2022-11-17T21:06:20.062Z,76.12
2022-11-17T21:08:47.581Z,76.38
2022-11-17T21:11:36.117Z,74.14
2022-11-17T21:14:05.497Z,75.29
2022-11-17T21:16:34.496Z,74.84
2022-11-17T21:19:01.993Z,74.80
2022-11-17T21:21:29.844Z,76.55
2022-11-17T21:23:58.929Z,77.01
2022-11-17T21:26:27.909Z,76.68
2022-11-17T21:28:55.539Z,77.04
2022-11-17T21:31:27.576Z,77.43
2022-11-17T21:33:56.412Z,76.64
2022-11-17T21:36:25.470Z,77.14
2022-11-17T21:38:53.461Z,76.16
2022-11-17T21:41:26.048Z,75.87
2022-11-17T21:43:55.331Z,75.27
2022-11-17T21:46:25.083Z,76.68
2022-11-17T21:48:53.615Z,75.25
2022-11-17T21:51:37.759Z,77.39
2022-11-17T21:54:07.246Z,77.73
2022-11-17T21:56:35.905Z,76.83
2022-11-17T21:59:10.513Z,75.56
2022-11-17T22:01:38.133Z,73.19
2022-11-17T22:04:05.836Z,71.76
2022-11-17T22:06:33.215Z,73.10
2022-11-17T22:09:00.672Z,72.99
2022-11-17T22:11:36.877Z,72.89
2022-11-17T22:14:11.801Z,72.57
2022-11-17T22:16:40.328Z,73.22
2022-11-17T22:19:08.532Z,74.14
2022-11-17T22:21:36.657Z,74.66
2022-11-17T22:24:05.222Z,75.52
2022-11-17T22:26:33.014Z,75.79
2022-11-17T22:29:00.333Z,77.88
2022-11-17T22:31:27.927Z,76.45
2022-11-17T22:33:55.255Z,76.76
2022-11-17T22:36:22.666Z,74.34
2022-11-17T22:38:51.309Z,72.15
2022-11-17T22:41:20.739Z,72.31
2022-11-17T22:43:52.268Z,71.79
2022-11-17T22:46:21.129Z,72.98
2022-11-17T22:48:48.623Z,73.96
2022-11-17T22:51:35.186Z,75.52
2022-11-17T22:54:02.776Z,74.16
2022-11-17T22:56:30.217Z,75.68
2022-11-17T22:58:59.866Z,75.83
2022-11-17T23:01:27.973Z,75.94
2022-11-17T23:03:55.290Z,74.81
2022-11-17T23:06:22.810Z,76.00
2022-11-17T23:08:50.753Z,73.41
2022-11-17T23:14:08.229Z,72.18
2022-11-17T23:16:38.916Z,73.21
2022-11-17T23:19:06.929Z,74.67
2022-11-17T23:21:34.253Z,74.38
2022-11-17T23:24:01.559Z,75.91
2022-11-17T23:26:29.136Z,75.49
2022-11-17T23:28:56.538Z,75.31
2022-11-17T23:31:23.841Z,74.64
2022-11-17T23:33:51.465Z,74.30
2022-11-17T23:36:22.225Z,73.56
2022-11-17T23:38:50.209Z,73.63
2022-11-17T23:41:19.779Z,74.33
2022-11-17T23:43:50.157Z,76.04
2022-11-17T23:46:19.622Z,76.95
2022-11-17T23:48:46.937Z,79.06
2022-11-17T23:51:16.935Z,77.96
2022-11-17T23:53:44.600Z,79.89
2022-11-17T23:56:11.919Z,78.93
2022-11-17T23:58:39.630Z,75.98
